createdAt,value
2023-04-22T00:00:14.195Z,100411.50
2023-04-22T00:03:04.296Z,100412.64
2023-04-22T00:05:32.817Z,100407.91
2023-04-22T00:08:01.160Z,100411.41
2023-04-22T00:10:29.438Z,100412.59
2023-04-22T00:12:57.883Z,100410.11
2023-04-22T00:15:26.792Z,100407.09
2023-04-22T00:17:58.917Z,100407.73
2023-04-22T00:20:27.165Z,100403.76
2023-04-22T00:22:55.009Z,100402.48
2023-04-22T00:25:22.793Z,100400.20
2023-04-22T00:27:51.424Z,100403.63
2023-04-22T00:30:19.195Z,100409.04
2023-04-22T00:32:47.094Z,100410.66
2023-04-22T00:35:15.469Z,100409.58
2023-04-22T00:37:43.306Z,100405.61
2023-04-22T00:40:11.456Z,100404.70
2023-04-22T00:42:39.888Z,100407.91
2023-04-22T00:45:11.212Z,100408.38
2023-04-22T00:47:42.110Z,100408.55
2023-04-22T00:50:10.634Z,100410.27
2023-04-22T00:52:38.539Z,100410.17
2023-04-22T00:55:06.981Z,100412.27
2023-04-22T00:57:36.107Z,100413.85
2023-04-22T01:00:05.526Z,100416.19
2023-04-22T01:02:33.904Z,100415.85
2023-04-22T01:05:04.128Z,100415.27
2023-04-22T01:07:32.165Z,100415.34
2023-04-22T01:09:59.995Z,100422.09
2023-04-22T01:12:28.419Z,100421.65
2023-04-22T01:14:56.600Z,100420.95
2023-04-22T01:17:24.952Z,100424.46
2023-04-22T01:19:53.409Z,100424.55
2023-04-22T01:22:21.918Z,100421.61
2023-04-22T01:24:49.895Z,100424.36
2023-04-22T01:27:18.457Z,100420.42
2023-04-22T01:29:46.398Z,100422.64
2023-04-22T01:32:14.652Z,100419.65
2023-04-22T01:34:42.793Z,100419.38
2023-04-22T01:37:10.883Z,100417.02
2023-04-22T01:39:39.417Z,100417.38
2023-04-22T01:42:07.623Z,100418.95
2023-04-22T01:44:35.372Z,100416.02
2023-04-22T01:47:03.486Z,100423.23
2023-04-22T01:49:31.758Z,100419.19
2023-04-22T01:51:59.759Z,100416.19
2023-04-22T01:54:27.716Z,100413.95
2023-04-22T01:56:56.086Z,100411.05
2023-04-22T01:59:24.411Z,100409.06
2023-04-22T02:01:52.383Z,100404.20
2023-04-22T02:04:20.703Z,100407.46
2023-04-22T02:06:48.820Z,100403.35
2023-04-22T02:09:17.224Z,100400.60
2023-04-22T02:11:45.737Z,100397.67
2023-04-22T02:14:13.669Z,100397.48
2023-04-22T02:16:42.162Z,100392.36
2023-04-22T02:19:10.169Z,100390.80
2023-04-22T02:21:38.450Z,100385.05
2023-04-22T02:24:06.624Z,100388.73
2023-04-22T02:26:34.869Z,100388.92
2023-04-22T02:29:02.956Z,100389.58
2023-04-22T02:31:31.372Z,100392.43
2023-04-22T02:33:59.732Z,100393.39
2023-04-22T02:36:28.848Z,100390.42
2023-04-22T02:38:56.812Z,100390.88
2023-04-22T02:41:24.738Z,100391.64
2023-04-22T02:43:55.292Z,100385.59
2023-04-22T02:46:23.269Z,100382.77
2023-04-22T02:48:51.257Z,100381.00
2023-04-22T02:51:19.218Z,100379.43
2023-04-22T02:53:47.311Z,100379.51
2023-04-22T02:56:15.260Z,100376.97
2023-04-22T02:58:43.093Z,100374.75
2023-04-22T03:01:12.073Z,100371.45
2023-04-22T03:03:40.270Z,100377.02
2023-04-22T03:06:08.320Z,100375.27
2023-04-22T03:08:36.300Z,100375.23
2023-04-22T03:11:05.157Z,100375.64
2023-04-22T03:13:32.940Z,100374.14
2023-04-22T03:16:01.455Z,100373.26
2023-04-22T03:18:29.613Z,100372.25
2023-04-22T03:20:57.511Z,100372.61
2023-04-22T03:23:25.573Z,100374.36
2023-04-22T03:25:53.742Z,100377.55
2023-04-22T03:28:21.702Z,100372.96
2023-04-22T03:30:49.637Z,100370.59
2023-04-22T03:33:18.551Z,100368.48
2023-04-22T03:35:49.337Z,100369.08
2023-04-22T03:38:17.503Z,100369.33
2023-04-22T03:40:45.753Z,100370.36
2023-04-22T03:43:13.926Z,100371.04
2023-04-22T03:45:41.999Z,100365.36
2023-04-22T03:48:10.182Z,100364.35
2023-04-22T03:50:39.586Z,100365.52
2023-04-22T03:53:07.833Z,100363.45
2023-04-22T03:55:36.493Z,100360.98
2023-04-22T03:58:04.532Z,100363.96
2023-04-22T04:00:32.343Z,100363.89
2023-04-22T04:03:00.418Z,100361.21
2023-04-22T04:05:28.918Z,100360.33
2023-04-22T04:07:57.210Z,100362.04
2023-04-22T04:10:25.414Z,100361.02
2023-04-22T04:12:53.341Z,100359.42
2023-04-22T04:15:21.873Z,100360.34
2023-04-22T04:17:52.936Z,100358.20
2023-04-22T04:20:21.013Z,100355.27
2023-04-22T04:22:49.227Z,100355.21
2023-04-22T04:25:18.372Z,100355.87
2023-04-22T04:27:46.366Z,100357.61
2023-04-22T04:30:15.151Z,100355.40
2023-04-22T04:32:45.666Z,100355.48
2023-04-22T04:35:14.481Z,100358.54
2023-04-22T04:37:46.604Z,100357.48
2023-04-22T04:40:14.589Z,100358.89
2023-04-22T04:42:42.625Z,100357.69
2023-04-22T04:45:10.908Z,100361.83
2023-04-22T04:47:39.238Z,100362.93
2023-04-22T04:50:07.576Z,100362.10
2023-04-22T04:52:35.855Z,100369.88
2023-04-22T04:55:03.874Z,100370.41
2023-04-22T04:57:31.771Z,100368.74
2023-04-22T04:59:59.588Z,100368.42
2023-04-22T05:02:27.720Z,100368.43
2023-04-22T05:04:55.822Z,100369.25
2023-04-22T05:07:24.046Z,100369.71
2023-04-22T05:09:51.912Z,100372.67
2023-04-22T05:15:33.057Z,100372.39
2023-04-22T05:18:01.376Z,100375.09
2023-04-22T05:20:29.396Z,100378.89
2023-04-22T05:22:57.657Z,100376.95
2023-04-22T05:25:25.729Z,100378.16
2023-04-22T05:27:53.687Z,100376.30
2023-04-22T05:30:21.637Z,100374.95
2023-04-22T05:32:49.594Z,100376.98
2023-04-22T05:35:17.760Z,100376.96
2023-04-22T05:37:45.782Z,100374.79
2023-04-22T05:40:13.892Z,100375.17
2023-04-22T05:42:41.744Z,100373.27
2023-04-22T05:45:10.021Z,100377.35
2023-04-22T05:47:37.936Z,100374.46
2023-04-22T05:50:06.847Z,100377.46
2023-04-22T05:52:34.852Z,100373.23
2023-04-22T05:55:03.126Z,100369.05
2023-04-22T05:57:31.882Z,100370.80
2023-04-22T06:00:00.765Z,100367.15
2023-04-22T06:02:28.807Z,100366.09
2023-04-22T06:04:57.321Z,100365.59
2023-04-22T06:07:25.843Z,100366.71
2023-04-22T06:10:02.060Z,100370.79
2023-04-22T06:12:30.783Z,100371.09
2023-04-22T06:14:58.992Z,100370.59
2023-04-22T06:17:27.025Z,100373.23
2023-04-22T06:19:55.553Z,100370.09
2023-04-22T06:22:23.974Z,100371.59
2023-04-22T06:24:51.888Z,100375.23
2023-04-22T06:27:20.271Z,100374.08
2023-04-22T06:29:48.307Z,100370.80
2023-04-22T06:32:16.120Z,100372.28
2023-04-22T06:34:44.021Z,100372.02
2023-04-22T06:37:12.002Z,100369.55
2023-04-22T06:39:40.309Z,100371.77
2023-04-22T06:42:09.034Z,100367.91
2023-04-22T06:44:36.969Z,100368.63
2023-04-22T06:47:04.985Z,100368.87
2023-04-22T06:49:32.887Z,100369.84
2023-04-22T06:52:01.047Z,100371.48
2023-04-22T06:54:28.861Z,100373.97
2023-04-22T06:56:57.924Z,100373.36
2023-04-22T06:59:25.795Z,100369.44
2023-04-22T07:01:53.672Z,100370.88
2023-04-22T07:04:22.073Z,100371.68
2023-04-22T07:06:50.239Z,100372.54
2023-04-22T07:09:18.099Z,100374.01
2023-04-22T07:11:46.598Z,100367.98
2023-04-22T07:14:14.415Z,100367.45
2023-04-22T07:16:42.358Z,100367.55
2023-04-22T07:19:10.684Z,100369.55
2023-04-22T07:21:38.792Z,100370.41
2023-04-22T07:24:06.978Z,100372.69
2023-04-22T07:26:35.136Z,100372.36
2023-04-22T07:29:03.217Z,100366.59
2023-04-22T07:31:31.053Z,100367.92
2023-04-22T07:33:59.291Z,100363.41
2023-04-22T07:36:27.254Z,100367.00
2023-04-22T07:38:55.089Z,100364.95
2023-04-22T07:41:23.814Z,100366.10
2023-04-22T07:43:51.912Z,100368.52
2023-04-22T07:46:20.054Z,100367.55
2023-04-22T07:48:48.304Z,100369.63
2023-04-22T07:51:16.414Z,100368.14
2023-04-22T07:53:44.182Z,100366.09
2023-04-22T07:56:12.749Z,100366.38
2023-04-22T07:58:40.969Z,100365.04
2023-04-22T08:01:08.900Z,100360.86
2023-04-22T08:03:37.062Z,100356.84
2023-04-22T08:06:05.567Z,100354.06
2023-04-22T08:08:33.405Z,100354.79
2023-04-22T08:11:01.449Z,100353.19
2023-04-22T08:13:29.548Z,100351.91
2023-04-22T08:15:57.530Z,100354.80
2023-04-22T08:18:25.829Z,100352.04
2023-04-22T08:20:54.187Z,100350.94
2023-04-22T08:23:22.543Z,100350.00
2023-04-22T08:25:50.640Z,100349.77
2023-04-22T08:28:18.681Z,100350.68
2023-04-22T08:30:46.608Z,100353.81
2023-04-22T08:33:14.463Z,100346.86
2023-04-22T08:35:42.499Z,100355.52
2023-04-22T08:38:10.667Z,100350.64
2023-04-22T08:40:42.206Z,100349.45
2023-04-22T08:43:10.224Z,100348.08
2023-04-22T08:45:39.847Z,100347.62
2023-04-22T08:48:09.795Z,100343.84
2023-04-22T08:50:41.289Z,100339.03
2023-04-22T08:53:09.231Z,100335.99
2023-04-22T08:55:37.466Z,100334.92
2023-04-22T08:58:06.255Z,100331.79
2023-04-22T09:00:34.864Z,100335.81
2023-04-22T09:03:03.752Z,100338.00
2023-04-22T09:05:34.670Z,100335.78
2023-04-22T09:08:03.574Z,100337.95
2023-04-22T09:10:33.620Z,100340.92
2023-04-22T09:13:03.782Z,100339.08
2023-04-22T09:15:31.883Z,100334.73
2023-04-22T09:17:59.767Z,100336.87
2023-04-22T09:20:29.164Z,100333.50
2023-04-22T09:22:58.865Z,100333.54
2023-04-22T09:25:27.815Z,100331.06
2023-04-22T09:27:58.067Z,100326.65
2023-04-22T09:30:27.260Z,100327.69
2023-04-22T09:32:56.974Z,100325.05
2023-04-22T09:35:28.112Z,100327.83
2023-04-22T09:37:56.993Z,100321.95
2023-04-22T09:40:26.068Z,100323.95
2023-04-22T09:42:56.086Z,100318.97
2023-04-22T09:45:36.117Z,100314.31
2023-04-22T09:48:17.615Z,100317.84
2023-04-22T09:50:47.867Z,100314.38
2023-04-22T09:53:20.355Z,100315.64
2023-04-22T09:55:49.408Z,100312.30
2023-04-22T09:58:19.166Z,100307.88
2023-04-22T10:00:49.772Z,100310.02
2023-04-22T10:03:18.627Z,100312.25
2023-04-22T10:05:46.859Z,100308.60
2023-04-22T10:08:16.311Z,100306.61
2023-04-22T10:10:45.169Z,100311.45
2023-04-22T10:13:13.423Z,100306.09
2023-04-22T10:15:52.262Z,100303.02
2023-04-22T10:18:26.996Z,100298.92
2023-04-22T10:20:56.622Z,100295.28
2023-04-22T10:23:25.562Z,100295.46
2023-04-22T10:25:55.162Z,100292.44
2023-04-22T10:28:25.055Z,100294.73
2023-04-22T10:30:53.884Z,100288.48
2023-04-22T10:33:21.855Z,100286.80
2023-04-22T10:36:22.263Z,100290.97
2023-04-22T10:38:50.318Z,100289.50
2023-04-22T10:41:23.830Z,100282.46
2023-04-22T10:44:01.786Z,100282.02
2023-04-22T10:46:38.166Z,100278.21
2023-04-22T10:49:08.082Z,100275.91
2023-04-22T10:51:44.130Z,100275.17
2023-04-22T10:54:31.094Z,100269.77
2023-04-22T10:57:06.327Z,100265.70
2023-04-22T10:59:56.354Z,100261.04
2023-04-22T11:02:25.286Z,100258.73
2023-04-22T11:05:26.334Z,100259.80
2023-04-22T11:07:56.079Z,100252.60
2023-04-22T11:10:45.487Z,100248.30
2023-04-22T11:13:19.452Z,100244.07
2023-04-22T11:15:49.972Z,100243.58
2023-04-22T11:18:28.264Z,100245.77
2023-04-22T11:20:56.866Z,100240.36
2023-04-22T11:23:27.313Z,100236.50
2023-04-22T11:25:57.739Z,100232.35
2023-04-22T11:28:26.368Z,100231.66
2023-04-22T11:31:10.237Z,100228.58
2023-04-22T11:33:41.429Z,100221.89
2023-04-22T11:36:12.959Z,100226.02
2023-04-22T11:38:41.110Z,100225.27
2023-04-22T11:41:08.955Z,100220.86
2023-04-22T11:43:46.826Z,100219.93
2023-04-22T11:46:14.925Z,100219.67
2023-04-22T11:48:43.056Z,100217.55
2023-04-22T11:51:11.969Z,100214.84
2023-04-22T11:53:50.238Z,100217.42
2023-04-22T11:56:18.192Z,100215.44
2023-04-22T11:58:48.991Z,100215.30
2023-04-22T12:01:18.043Z,100216.23
